FLUGWETTER MÜNCHEN AIRPORT

[source: ADDS]
METAR
EDDM 281620Z 09004KT 030V130 9999 -RADZ SCT007 SCT015 BKN025 04/03 Q0996 RERA TEMPO RA BKN010 =
TAF
TAF EDDM 281100Z 2812/0118 16010KT 9999 SCT010 BKN030 TEMPO 2815/2821 RA BKN012 BECMG 2818/2820 24010KT BECMG 2820/2822 25015G25KT BECMG 0106/0108 25020G30KT TEMPO 0109/0116 27025G45KT 3000 SHGS BKN020CB =
SR / SS: 05:56 / 16:57 UTC (Tag 2017-02-28)

QR-Code dieser Seite

QR-Code dieser Seite